Time;durP1;ratioP1;P1;durP2;ratioP2;P2;SDS_P1;SDS_P2;PMS_P1;PMS_P2;Temp;Humidity;BMP_temperature;BMP_pressure;BME280_temperature;BME280_humidity;BME280_pressure;Samples;Min_cycle;Max_cycle;Signal;HPM_P1;HPM_P2
2021/11/20 00:00:54;;;;;;;15.63;11.37;;;;;;;9.48;86.18;99078.16;2273100;78;20947;-83
2021/11/20 00:03:54;;;;;;;18.73;10.67;;;;;;;9.46;86.35;99080.73;2272704;78;20963;-83
2021/11/20 00:06:55;;;;;;;13.83;10.47;;;;;;;9.46;86.35;99086.37;2272383;78;21086;-82
2021/11/20 00:09:55;;;;;;;15.83;10.67;;;;;;;9.45;86.30;99076.38;2272490;78;20936;-81
2021/11/20 00:12:56;;;;;;;14.30;9.33;;;;;;;9.43;86.43;99067.65;2272690;78;21346;-81
2021/11/20 00:15:57;;;;;;;16.97;10.00;;;;;;;9.42;86.40;99063.70;2272969;78;21352;-80
2021/11/20 00:18:59;;;;;;;11.80;8.87;;;;;;;9.42;86.49;99072.41;2273034;78;20967;-80
2021/11/20 00:21:59;;;;;;;16.63;10.07;;;;;;;9.42;86.13;99064.59;2272409;78;20984;-82
2021/11/20 00:25:00;;;;;;;18.50;10.13;;;;;;;9.41;86.55;99065.44;2272594;78;20983;-82
2021/11/20 00:28:01;;;;;;;12.60;9.00;;;;;;;9.40;86.57;99063.67;2272267;78;20954;-82
2021/11/20 00:31:06;;;;;;;11.20;9.13;;;;;;;9.40;86.36;99068.01;2273142;78;21335;-79
2021/11/20 00:34:03;;;;;;;10.57;8.77;;;;;;;9.39;86.44;99072.77;2272278;78;21003;-80
2021/11/20 00:37:04;;;;;;;16.17;10.87;;;;;;;9.39;86.61;99076.25;2272866;78;21438;-81
2021/11/20 00:40:04;;;;;;;16.87;10.70;;;;;;;9.39;86.44;99060.62;2273073;78;20958;-80
2021/11/20 00:43:05;;;;;;;14.93;10.00;;;;;;;9.40;86.56;99068.89;2273294;78;20994;-81
2021/11/20 00:46:05;;;;;;;18.40;9.57;;;;;;;9.40;86.39;99068.01;2273251;78;20987;-80
2021/11/20 00:49:06;;;;;;;11.90;8.53;;;;;;;9.40;86.22;99051.95;2273259;78;21320;-79
2021/11/20 00:52:07;;;;;;;11.70;8.53;;;;;;;9.40;86.42;99054.55;2273437;78;20951;-80
2021/11/20 00:55:07;;;;;;;13.10;8.70;;;;;;;9.40;86.31;99048.47;2273283;77;20954;-80
2021/11/20 00:58:08;;;;;;;13.43;8.60;;;;;;;9.40;86.18;99061.07;2273101;78;20963;-80
2021/11/20 01:01:09;;;;;;;18.00;9.50;;;;;;;9.40;86.04;99039.34;2273177;78;20956;-79
2021/11/20 01:04:09;;;;;;;13.37;8.43;;;;;;;9.39;86.18;99041.08;2272701;78;20971;-83
2021/11/20 01:07:10;;;;;;;14.57;8.73;;;;;;;9.40;86.21;99045.86;2272568;78;20943;-83
2021/11/20 01:10:10;;;;;;;14.00;8.80;;;;;;;9.40;85.90;99028.50;2272908;78;21381;-83
2021/11/20 01:13:11;;;;;;;9.20;8.23;;;;;;;9.40;85.97;99040.23;2273164;78;21645;-83
2021/11/20 01:16:11;;;;;;;11.03;7.93;;;;;;;9.42;85.93;99033.32;2273182;78;21009;-85
2021/11/20 01:19:12;;;;;;;13.53;9.20;;;;;;;9.42;86.02;99033.75;2273280;78;20936;-84
2021/11/20 01:22:12;;;;;;;10.03;8.30;;;;;;;9.42;85.75;99028.11;2273135;78;20941;-84
2021/11/20 01:25:13;;;;;;;9.80;7.93;;;;;;;9.43;85.60;99027.69;2272874;78;20959;-83
2021/11/20 01:28:13;;;;;;;12.17;7.83;;;;;;;9.44;85.50;99031.63;2272797;78;20987;-82
2021/11/20 01:31:14;;;;;;;15.10;7.70;;;;;;;9.45;85.42;99046.41;2273231;78;20943;-83
2021/11/20 01:34:16;;;;;;;11.17;7.77;;;;;;;9.45;85.33;99046.83;2273051;78;20966;-82
2021/11/20 01:37:16;;;;;;;13.83;7.80;;;;;;;9.47;85.12;99047.31;2273561;78;21323;-82
2021/11/20 01:40:17;;;;;;;10.33;7.37;;;;;;;9.46;84.98;99065.52;2273322;78;20967;-83
2021/11/20 01:43:17;;;;;;;12.60;7.77;;;;;;;9.48;85.02;99071.22;2272953;78;21311;-82
2021/11/20 01:46:18;;;;;;;12.60;7.50;;;;;;;9.48;84.55;99068.61;2272654;78;21022;-83
2021/11/20 01:49:18;;;;;;;13.00;7.77;;;;;;;9.50;84.82;99061.70;2273007;78;20951;-83
2021/11/20 01:52:19;;;;;;;16.83;7.40;;;;;;;9.50;84.80;99067.34;2273351;78;20944;-82
2021/11/20 01:55:19;;;;;;;10.87;7.27;;;;;;;9.49;84.92;99057.34;2272749;78;21722;-83
2021/11/20 01:58:20;;;;;;;8.87;6.93;;;;;;;9.49;85.13;99061.67;2272494;78;21014;-83
2021/11/20 02:01:21;;;;;;;11.53;7.60;;;;;;;9.49;84.60;99069.49;2272653;78;20998;-83
2021/11/20 02:04:22;;;;;;;9.50;7.30;;;;;;;9.49;84.57;99070.38;2273108;78;21047;-82
2021/11/20 02:07:26;;;;;;;10.23;7.70;;;;;;;9.49;84.91;99072.98;2272975;78;20971;-82
2021/11/20 02:10:25;;;;;;;14.90;8.13;;;;;;;9.51;84.87;99074.31;2272648;78;20907;-83
2021/11/20 02:13:25;;;;;;;12.50;8.10;;;;;;;9.49;84.57;99058.64;2273080;78;20939;-82
2021/11/20 02:16:26;;;;;;;9.87;7.40;;;;;;;9.48;84.93;99060.80;2273412;78;20915;-83
2021/11/20 02:19:26;;;;;;;14.53;8.27;;;;;;;9.46;84.95;99048.16;2273642;78;20967;-84
2021/11/20 02:22:27;;;;;;;13.37;8.23;;;;;;;9.46;84.98;99045.56;2273463;78;20896;-82
2021/11/20 02:25:27;;;;;;;12.70;8.27;;;;;;;9.45;84.96;99045.10;2273211;78;20990;-83
2021/11/20 02:28:28;;;;;;;14.97;8.70;;;;;;;9.44;85.15;99051.16;2272947;78;20991;-83
2021/11/20 02:31:28;;;;;;;10.23;7.23;;;;;;;9.43;85.31;99061.13;2273766;78;20974;-82
2021/11/20 02:34:29;;;;;;;13.70;8.27;;;;;;;9.42;85.56;99063.28;2273863;78;21006;-83
2021/11/20 02:37:29;;;;;;;17.37;9.40;;;;;;;9.41;85.91;99054.13;2274061;78;20951;-83
2021/11/20 02:40:30;;;;;;;20.90;9.27;;;;;;;9.39;86.06;99052.80;2273689;78;21010;-85
2021/11/20 02:43:31;;;;;;;12.33;8.23;;;;;;;9.36;86.40;99051.86;2273535;78;20971;-82
2021/11/20 02:46:32;;;;;;;10.67;9.07;;;;;;;9.32;86.76;99045.71;2272882;78;20975;-82
2021/11/20 02:49:33;;;;;;;12.50;8.97;;;;;;;9.30;86.98;99046.53;2273096;78;21001;-83
2021/11/20 02:52:33;;;;;;;15.53;9.57;;;;;;;9.26;87.27;99061.22;2273224;78;20944;-84
2021/11/20 02:55:34;;;;;;;12.13;8.90;;;;;;;9.28;87.22;99061.25;2273358;77;20943;-84
2021/11/20 02:58:34;;;;;;;14.63;9.50;;;;;;;9.27;87.15;99060.38;2273446;78;21355;-84
2021/11/20 03:01:35;;;;;;;33.83;12.40;;;;;;;9.27;87.39;99078.61;2273367;78;20975;-83
2021/11/20 03:04:36;;;;;;;14.23;9.00;;;;;;;9.42;93.93;99075.01;2273073;78;21446;-82
2021/11/20 03:07:37;;;;;;;9.50;8.43;;;;;;;10.25;85.81;99064.42;2273417;78;20971;-83
2021/11/20 03:10:37;;;;;;;11.43;7.47;;;;;;;9.88;84.68;99072.00;2272214;78;21001;-83
2021/11/20 03:13:38;;;;;;;9.93;6.97;;;;;;;9.67;85.62;99071.19;2272050;78;20955;-79
2021/11/20 03:16:38;;;;;;;15.37;8.37;;;;;;;9.53;86.21;99067.41;2272754;78;20951;-81
2021/11/20 03:19:39;;;;;;;11.20;7.77;;;;;;;9.46;86.69;99051.20;2272577;78;20967;-80
2021/11/20 03:22:39;;;;;;;15.63;7.30;;;;;;;9.38;87.17;99067.98;2272592;78;21330;-80
2021/11/20 03:25:40;;;;;;;13.17;8.70;;;;;;;9.31;87.41;99056.98;2272505;78;21042;-79
2021/11/20 03:28:41;;;;;;;9.77;8.43;;;;;;;9.27;87.59;99057.77;2268008;78;21083;-80
2021/11/20 03:31:41;;;;;;;14.10;8.80;;;;;;;9.23;88.02;99074.18;2267680;78;20927;-79
2021/11/20 03:34:42;;;;;;;11.07;9.00;;;;;;;9.21;88.36;99071.97;2268744;78;20923;-82
2021/11/20 03:37:43;;;;;;;11.73;8.93;;;;;;;9.17;88.33;99061.91;2268621;78;20947;-80
2021/11/20 03:40:43;;;;;;;10.57;8.80;;;;;;;9.17;88.55;99075.36;2268729;78;21327;-81
2021/11/20 03:43:45;;;;;;;14.73;8.40;;;;;;;9.15;88.62;99054.48;2268804;78;20986;-80
2021/11/20 03:46:45;;;;;;;11.93;8.67;;;;;;;9.14;88.64;99055.34;2268874;78;21034;-80
2021/11/20 03:49:46;;;;;;;13.20;9.53;;;;;;;9.14;88.62;99071.38;2268913;78;20959;-81
2021/11/20 03:52:46;;;;;;;11.07;8.73;;;;;;;9.13;88.69;99073.53;2268872;78;21322;-81
2021/11/20 03:55:47;;;;;;;10.13;8.20;;;;;;;9.12;88.65;99067.45;2268437;78;20963;-80
2021/11/20 03:58:48;;;;;;;12.80;8.77;;;;;;;9.11;88.75;99070.89;2268127;78;20982;-79
2021/11/20 04:01:48;;;;;;;12.10;8.33;;;;;;;9.10;88.89;99077.38;2267850;78;21323;-80
2021/11/20 04:04:49;;;;;;;16.40;9.10;;;;;;;9.11;88.92;99076.53;2268959;78;21006;-81
2021/11/20 04:07:49;;;;;;;18.30;8.77;;;;;;;9.11;88.90;99071.32;2268945;78;20970;-80
2021/11/20 04:10:50;;;;;;;14.57;8.70;;;;;;;9.12;88.78;99072.66;2268822;78;21316;-79
2021/11/20 04:13:50;;;;;;;11.17;7.80;;;;;;;9.11;88.64;99076.11;2268881;78;20955;-80
2021/11/20 04:16:51;;;;;;;8.60;7.53;;;;;;;9.12;88.76;99067.87;2268160;78;21245;-81
2021/11/20 04:19:51;;;;;;;10.27;7.97;;;;;;;9.12;88.62;99060.94;2268267;78;20974;-80
2021/11/20 04:22:52;;;;;;;9.43;7.23;;;;;;;9.11;88.61;99066.11;2268593;78;21342;-78
2021/11/20 04:25:52;;;;;;;8.60;6.90;;;;;;;9.13;88.38;99070.93;2268608;78;21015;-82
2021/11/20 04:28:53;;;;;;;10.37;7.10;;;;;;;9.12;88.31;99070.05;2267791;78;20991;-80
2021/11/20 04:31:53;;;;;;;16.30;7.83;;;;;;;9.13;88.77;99077.44;2267536;78;20923;-79
2021/11/20 04:34:54;;;;;;;12.70;8.00;;;;;;;9.15;88.09;99080.95;2268093;78;21010;-80
2021/11/20 04:37:54;;;;;;;10.67;7.40;;;;;;;9.14;88.03;99082.68;2269012;78;21339;-81
2021/11/20 04:40:55;;;;;;;12.57;8.10;;;;;;;9.17;87.85;99067.55;2268964;78;20991;-79
2021/11/20 04:43:55;;;;;;;9.63;7.10;;;;;;;9.19;88.60;99078.45;2268922;78;20975;-80
2021/11/20 04:46:56;;;;;;;11.70;7.43;;;;;;;9.21;87.61;99078.48;2268887;78;20951;-79
2021/11/20 04:49:56;;;;;;;13.93;7.63;;;;;;;9.22;87.65;99069.81;2268395;78;20991;-78
2021/11/20 04:52:57;;;;;;;10.43;6.73;;;;;;;9.24;87.51;99061.61;2267824;78;20951;-79
2021/11/20 04:55:58;;;;;;;13.13;7.53;;;;;;;9.23;87.36;99059.86;2267644;78;20949;-81
2021/11/20 04:58:58;;;;;;;12.53;8.00;;;;;;;9.23;87.36;99070.27;2267847;78;20911;-81
2021/11/20 05:01:59;;;;;;;12.10;7.53;;;;;;;9.22;87.30;99077.63;2267549;78;21010;-81
2021/11/20 05:05:00;;;;;;;9.50;8.10;;;;;;;9.21;87.27;99079.36;2268400;78;20967;-80
2021/11/20 05:08:00;;;;;;;11.00;7.67;;;;;;;9.22;87.09;99078.94;2268403;78;20959;-81
2021/11/20 05:11:01;;;;;;;12.67;7.80;;;;;;;9.21;87.17;99083.27;2268537;78;20948;-80
2021/11/20 05:14:01;;;;;;;10.90;8.20;;;;;;;9.20;87.11;99082.81;2268578;78;20978;-82
2021/11/20 05:17:02;;;;;;;14.30;8.27;;;;;;;9.19;87.09;99085.38;2268941;78;20971;-83
2021/11/20 05:20:03;;;;;;;12.67;8.70;;;;;;;9.16;87.04;99087.92;2268473;78;20956;-81
2021/11/20 05:23:03;;;;;;;14.07;8.90;;;;;;;9.12;87.19;99082.19;2268610;78;21002;-83
2021/11/20 05:26:04;;;;;;;13.77;8.90;;;;;;;9.10;87.28;99088.67;2268390;78;20991;-83
2021/11/20 05:29:06;;;;;;;18.50;10.20;;;;;;;9.07;87.37;99085.13;2268752;78;20975;-83
2021/11/20 05:32:07;;;;;;;12.87;8.87;;;;;;;9.04;87.40;99100.25;2268817;78;20999;-82
2021/11/20 05:35:07;;;;;;;16.17;10.03;;;;;;;9.02;87.57;99101.07;2268311;78;20978;-84
2021/11/20 05:38:08;;;;;;;13.10;9.17;;;;;;;9.00;87.58;99103.64;2268016;78;20963;-84
2021/11/20 05:41:08;;;;;;;15.10;8.70;;;;;;;9.02;87.61;99101.95;2267761;78;20959;-81
2021/11/20 05:44:11;;;;;;;11.50;8.77;;;;;;;9.00;87.60;99092.34;2267767;78;20951;-83
2021/11/20 05:47:11;;;;;;;15.60;8.93;;;;;;;9.00;87.57;99102.34;2267312;78;21121;-84
2021/11/20 05:50:12;;;;;;;15.10;9.07;;;;;;;8.99;87.65;99108.39;2267838;78;21022;-86
2021/11/20 05:53:12;;;;;;;12.13;9.23;;;;;;;8.99;87.55;99115.32;2267339;78;21014;-80
2021/11/20 05:56:13;;;;;;;16.43;8.63;;;;;;;8.98;87.78;99111.84;2268352;78;21002;-80
2021/11/20 05:59:13;;;;;;;13.37;9.13;;;;;;;8.98;87.81;99113.14;2268279;78;20947;-81
2021/11/20 06:02:15;;;;;;;16.83;9.73;;;;;;;8.98;87.84;99114.86;2268623;78;20959;-82
2021/11/20 06:05:15;;;;;;;12.83;9.57;;;;;;;8.94;87.85;99123.91;2268436;78;21426;-79
2021/11/20 06:08:16;;;;;;;12.70;9.07;;;;;;;8.93;87.85;99136.89;2268249;78;20982;-79
2021/11/20 06:11:18;;;;;;;14.53;9.30;;;;;;;8.91;87.95;99142.06;2267870;78;21332;-80
2021/11/20 06:14:18;;;;;;;14.07;11.10;;;;;;;8.90;87.88;99145.94;2268180;78;21046;-80
2021/11/20 06:17:19;;;;;;;14.50;9.10;;;;;;;8.89;88.06;99159.38;2268140;78;21375;-79
2021/11/20 06:20:19;;;;;;;13.00;9.50;;;;;;;8.86;88.11;99148.89;2267642;78;20920;-81
2021/11/20 06:23:20;;;;;;;16.83;8.87;;;;;;;8.87;88.15;99154.55;2268115;78;21010;-81
2021/11/20 06:26:20;;;;;;;15.67;8.70;;;;;;;8.85;88.08;99161.86;2268367;78;21339;-79
2021/11/20 06:29:22;;;;;;;10.03;8.73;;;;;;;8.83;88.20;99157.92;2268315;78;21371;-80
2021/11/20 06:32:22;;;;;;;15.73;9.47;;;;;;;8.83;88.17;99163.13;2268547;78;21374;-80
2021/11/20 06:35:23;;;;;;;14.47;9.17;;;;;;;8.85;88.04;99182.27;2267716;78;20991;-80
2021/11/20 06:38:24;;;;;;;12.70;8.77;;;;;;;8.86;87.97;99180.13;2267321;78;20963;-80
2021/11/20 06:41:24;;;;;;;15.03;8.93;;;;;;;8.88;87.87;99181.04;2267223;78;20939;-79
2021/11/20 06:44:25;;;;;;;19.10;11.37;;;;;;;8.89;87.83;99188.00;2267210;78;21346;-81
2021/11/20 06:47:26;;;;;;;16.33;12.00;;;;;;;8.92;87.79;99188.08;2266807;78;20959;-79
2021/11/20 06:50:26;;;;;;;13.77;9.70;;;;;;;8.97;87.68;99186.00;2267565;78;20983;-81
2021/11/20 06:53:27;;;;;;;17.60;9.63;;;;;;;9.02;87.47;99188.30;2267754;78;20951;-79
2021/11/20 06:56:28;;;;;;;11.33;8.70;;;;;;;9.05;87.22;99195.76;2267208;78;21002;-79
2021/11/20 07:02:45;;;;;;;12.60;9.23;;;;;;;9.13;86.71;99200.72;2235317;78;21348;-79
2021/11/20 07:05:46;;;;;;;14.37;9.57;;;;;;;9.20;86.65;99197.84;2266196;78;20975;-79
2021/11/20 07:08:46;;;;;;;20.47;13.20;;;;;;;9.25;86.21;99198.39;2266927;78;21319;-80
2021/11/20 07:11:47;;;;;;;14.90;10.17;;;;;;;9.34;85.94;99209.45;2266356;78;20947;-79
2021/11/20 07:14:48;;;;;;;23.47;11.13;;;;;;;9.39;86.04;99209.13;2266606;78;20966;-80
2021/11/20 07:17:48;;;;;;;12.57;8.23;;;;;;;9.50;85.24;99217.18;2267987;78;20947;-81
2021/11/20 07:20:49;;;;;;;14.33;8.33;;;;;;;9.53;85.20;99211.61;2268045;78;20983;-80
2021/11/20 07:23:49;;;;;;;13.93;7.70;;;;;;;9.65;84.89;99221.88;2268320;78;20951;-79
2021/11/20 07:26:50;;;;;;;15.77;8.50;;;;;;;9.69;84.27;99225.88;2268454;78;21445;-80
2021/11/20 07:29:52;;;;;;;18.13;8.87;;;;;;;9.77;83.99;99233.86;2267274;78;20955;-78
2021/11/20 07:32:52;;;;;;;9.27;6.70;;;;;;;9.80;83.79;99228.72;2268522;78;21339;-78
2021/11/20 07:35:53;;;;;;;8.83;7.17;;;;;;;9.83;83.70;99228.78;2267449;78;20994;-80
2021/11/20 07:38:55;;;;;;;10.87;5.97;;;;;;;9.83;82.94;99228.35;2267292;78;20971;-78
2021/11/20 07:41:55;;;;;;;11.17;6.73;;;;;;;9.88;82.43;99220.20;2268139;78;20998;-78
2021/11/20 07:45:01;;;;;;;8.63;6.10;;;;;;;9.89;82.75;99217.17;2267394;78;21374;-80
2021/11/20 07:47:58;;;;;;;9.73;7.03;;;;;;;9.92;82.79;99217.66;2265401;78;20927;-79
2021/11/20 07:50:59;;;;;;;10.03;6.80;;;;;;;9.95;82.55;99218.59;2267135;78;20983;-79
2021/11/20 07:53:59;;;;;;;12.40;6.93;;;;;;;9.97;82.13;99220.81;2267383;78;21034;-80
2021/11/20 07:57:00;;;;;;;13.37;8.30;;;;;;;10.01;82.03;99220.02;2267100;79;21430;-79
2021/11/20 08:00:00;;;;;;;13.10;7.60;;;;;;;10.08;82.48;99223.63;2268022;78;20979;-81
2021/11/20 08:03:01;;;;;;;14.73;7.43;;;;;;;10.12;81.33;99218.94;2268189;78;21006;-81
2021/11/20 08:06:02;;;;;;;11.47;7.07;;;;;;;10.12;80.92;99230.67;2268029;78;21354;-79
2021/11/20 08:09:03;;;;;;;13.20;7.10;;;;;;;10.14;81.21;99227.24;2267749;78;20952;-79
2021/11/20 08:12:04;;;;;;;13.23;7.60;;;;;;;10.18;81.26;99231.67;2268213;78;21371;-79
2021/11/20 08:15:04;;;;;;;11.90;7.10;;;;;;;10.25;80.61;99238.34;2268267;78;20933;-79
2021/11/20 08:18:05;;;;;;;13.03;8.40;;;;;;;10.29;79.89;99236.25;2267633;78;21336;-80
2021/11/20 08:21:06;;;;;;;15.73;8.70;;;;;;;10.30;80.46;99238.00;2267047;78;20927;-80
2021/11/20 08:24:06;;;;;;;15.40;8.80;;;;;;;10.28;79.84;99239.70;2267040;78;20930;-80
2021/11/20 08:27:09;;;;;;;12.37;6.70;;;;;;;10.29;80.16;99231.03;2267929;78;21006;-80
2021/11/20 08:30:09;;;;;;;8.73;5.90;;;;;;;10.33;79.11;99240.67;2268113;78;21363;-79
2021/11/20 08:33:10;;;;;;;9.23;5.97;;;;;;;10.38;79.04;99246.86;2267557;78;20947;-80
2021/11/20 08:36:11;;;;;;;9.17;5.27;;;;;;;10.39;78.61;99238.18;2267330;78;21402;-80
2021/11/20 08:39:14;;;;;;;12.37;6.17;;;;;;;10.47;79.19;99235.32;2268543;78;20959;-80
2021/11/20 08:42:15;;;;;;;9.83;5.57;;;;;;;10.55;79.51;99238.07;2268302;78;21012;-78
2021/11/20 08:45:16;;;;;;;12.03;5.70;;;;;;;10.70;78.05;99252.70;2268001;78;20951;-77
2021/11/20 08:48:16;;;;;;;9.60;5.37;;;;;;;10.80;77.13;99245.05;2267252;78;20939;-78
2021/11/20 08:51:17;;;;;;;8.70;5.30;;;;;;;10.82;78.02;99252.48;2267929;78;20955;-78
2021/11/20 08:54:17;;;;;;;7.93;4.93;;;;;;;10.85;77.28;99244.70;2268575;78;20912;-79
2021/11/20 08:57:18;;;;;;;13.00;4.90;;;;;;;10.89;77.32;99251.28;2269029;78;21397;-78
2021/11/20 09:00:19;;;;;;;8.57;4.70;;;;;;;10.96;75.96;99251.41;2268593;78;21007;-78
2021/11/20 09:03:19;;;;;;;5.80;3.90;;;;;;;11.12;76.20;99240.78;2269425;78;20959;-80
2021/11/20 09:06:20;;;;;;;10.57;4.60;;;;;;;11.18;75.27;99250.03;2268783;78;21367;-78
2021/11/20 09:09:20;;;;;;;7.95;4.90;;;;;;;11.16;75.73;99247.39;2268893;78;20923;-79
2021/11/20 09:12:21;;;;;;;10.17;4.37;;;;;;;11.14;75.77;99249.10;2267482;78;20971;-78
2021/11/20 09:15:21;;;;;;;6.45;4.30;;;;;;;11.16;74.60;99256.97;2268408;78;20959;-73
2021/11/20 09:18:22;;;;;;;9.13;4.00;;;;;;;11.19;74.25;99255.70;2268062;78;20947;-79
2021/11/20 09:21:22;;;;;;;7.93;4.07;;;;;;;11.29;74.92;99251.11;2268177;78;21299;-79
2021/11/20 09:24:23;;;;;;;7.33;4.07;;;;;;;11.43;74.01;99254.81;2268626;78;21014;-79
2021/11/20 09:27:24;;;;;;;6.58;3.77;;;;;;;11.55;73.12;99251.92;2267745;78;21054;-78
2021/11/20 09:30:25;;;;;;;9.10;3.92;;;;;;;11.73;72.16;99246.95;2268544;78;21026;-79
2021/11/20 09:33:25;;;;;;;5.90;4.00;;;;;;;11.75;72.11;99246.11;2268560;78;21434;-78
2021/11/20 09:36:26;;;;;;;6.83;5.17;;;;;;;11.71;72.70;99237.77;2268846;78;20994;-81
2021/11/20 09:39:26;;;;;;;7.33;4.80;;;;;;;11.75;72.85;99240.88;2268374;78;20951;-82
2021/11/20 09:42:27;;;;;;;9.70;5.90;;;;;;;11.62;72.34;99234.16;2268901;78;20967;-82
2021/11/20 09:45:28;;;;;;;13.67;8.30;;;;;;;11.52;73.71;99235.77;2268307;78;21026;-80
2021/11/20 09:48:28;;;;;;;8.30;6.50;;;;;;;11.52;73.12;99229.66;2267876;78;20943;-80
2021/11/20 09:51:29;;;;;;;21.62;10.82;;;;;;;11.74;73.66;99231.70;2268059;78;21315;-80
2021/11/20 09:54:32;;;;;;;13.95;8.53;;;;;;;11.78;72.97;99243.57;2267867;78;20915;-81
2021/11/20 09:57:32;;;;;;;7.95;5.40;;;;;;;11.79;72.59;99239.22;2267396;78;21083;-81
2021/11/20 10:00:32;;;;;;;9.68;6.00;;;;;;;11.71;72.00;99242.12;2267392;78;20959;-81
2021/11/20 10:03:33;;;;;;;8.88;5.55;;;;;;;11.67;71.52;99236.41;2267501;78;20936;-80
2021/11/20 10:06:33;;;;;;;8.00;5.35;;;;;;;11.58;72.57;99242.39;2266593;78;21414;-80
2021/11/20 10:09:34;;;;;;;6.90;4.85;;;;;;;11.53;73.20;99238.83;2266899;78;20963;-80
2021/11/20 10:12:34;;;;;;;9.95;4.70;;;;;;;11.59;72.48;99234.11;2267351;78;20995;-81
2021/11/20 10:15:35;;;;;;;12.33;6.75;;;;;;;11.63;73.47;99235.91;2267578;78;20936;-81
2021/11/20 10:18:35;;;;;;;12.95;7.25;;;;;;;11.67;73.26;99232.05;2268239;78;21331;-79
2021/11/20 10:21:36;;;;;;;14.25;6.42;;;;;;;11.71;73.65;99226.44;2268100;78;20896;-80
2021/11/20 10:24:37;;;;;;;11.30;7.62;;;;;;;11.87;73.25;99223.63;2268240;78;20955;-80
2021/11/20 10:30:40;;;;;;;13.38;6.42;;;;;;;12.27;71.36;99223.70;2236009;78;20947;-80
2021/11/20 10:33:40;;;;;;;12.13;5.78;;;;;;;12.32;71.15;99229.86;2268290;78;20975;-80
2021/11/20 10:36:41;;;;;;;12.00;6.95;;;;;;;12.31;70.67;99222.87;2268144;78;20951;-81
2021/11/20 10:39:42;;;;;;;8.93;6.10;;;;;;;12.19;70.96;99220.99;2268036;78;20971;-82
2021/11/20 10:42:42;;;;;;;11.10;4.90;;;;;;;12.10;70.94;99222.16;2267507;78;20978;-81
2021/11/20 10:45:43;;;;;;;11.55;7.78;;;;;;;12.08;71.74;99214.30;2267203;78;21010;-80
2021/11/20 10:48:43;;;;;;;12.37;7.60;;;;;;;12.03;71.52;99211.17;2267817;78;20947;-81
2021/11/20 10:51:44;;;;;;;9.60;6.87;;;;;;;12.03;72.08;99205.52;2267811;78;20966;-80
2021/11/20 10:54:44;;;;;;;10.03;6.33;;;;;;;12.08;72.30;99199.02;2267746;78;21295;-81
2021/11/20 10:57:45;;;;;;;6.53;4.90;;;;;;;12.21;71.49;99188.30;2267654;78;20963;-81
2021/11/20 11:00:45;;;;;;;10.28;5.45;;;;;;;12.42;69.90;99196.38;2266849;78;20936;-81
2021/11/20 11:03:46;;;;;;;8.88;5.75;;;;;;;12.64;70.07;99188.28;2267604;78;21391;-80
2021/11/20 11:06:47;;;;;;;9.75;5.60;;;;;;;12.84;69.90;99183.22;2267264;78;21010;-80
2021/11/20 11:09:48;;;;;;;12.82;6.53;;;;;;;12.83;69.53;99182.77;2267820;78;20970;-80
2021/11/20 11:12:48;;;;;;;11.20;5.42;;;;;;;12.66;70.07;99179.58;2268127;78;20967;-80
2021/11/20 11:15:49;;;;;;;6.17;5.08;;;;;;;12.66;69.84;99182.20;2267315;78;20954;-81
2021/11/20 11:18:49;;;;;;;7.90;5.45;;;;;;;12.57;70.33;99179.50;2267068;78;20931;-81
2021/11/20 11:21:56;;;;;;;11.05;6.95;;;;;;;12.40;70.32;99176.72;2267132;78;21630;-81
2021/11/20 11:24:56;;;;;;;7.55;5.83;;;;;;;12.33;70.87;99181.45;2267185;78;21382;-80
2021/11/20 11:27:57;;;;;;;7.35;5.03;;;;;;;12.25;71.03;99176.56;2267382;78;20975;-80
2021/11/20 11:31:01;;;;;;;7.47;4.92;;;;;;;12.22;70.58;99173.04;2271347;78;20974;-81
2021/11/20 11:34:01;;;;;;;10.50;5.92;;;;;;;12.20;70.87;99169.53;2272273;78;21331;-80
2021/11/20 11:37:02;;;;;;;8.08;5.22;;;;;;;12.25;70.34;99173.08;2272046;78;20982;-80
2021/11/20 11:40:02;;;;;;;5.92;5.05;;;;;;;12.26;70.05;99173.52;2272826;78;20943;-80
2021/11/20 11:43:06;;;;;;;6.50;4.83;;;;;;;12.18;70.67;99168.20;2272711;78;21015;-79
2021/11/20 11:46:06;;;;;;;7.03;4.83;;;;;;;12.01;69.96;99175.84;2272722;78;21014;-81
2021/11/20 11:49:07;;;;;;;7.00;5.70;;;;;;;11.90;70.82;99173.53;2272474;78;20998;-81
2021/11/20 11:52:07;;;;;;;7.72;5.80;;;;;;;11.83;71.53;99173.44;2272033;78;20994;-81
2021/11/20 11:55:08;;;;;;;7.75;5.53;;;;;;;11.78;71.87;99176.88;2270748;78;21311;-80
2021/11/20 11:58:08;;;;;;;10.45;7.22;;;;;;;11.84;72.03;99178.69;2271241;78;20982;-80
2021/11/20 12:01:09;;;;;;;8.98;6.72;;;;;;;11.84;72.50;99171.27;2272101;78;20916;-80
2021/11/20 12:04:10;;;;;;;14.73;8.78;;;;;;;11.76;72.69;99167.22;2271496;78;21002;-80
2021/11/20 12:07:10;;;;;;;10.80;7.77;;;;;;;11.61;73.09;99160.06;2271513;78;20979;-81
2021/11/20 12:10:11;;;;;;;14.00;7.30;;;;;;;11.50;73.45;99153.82;2271291;78;20924;-80
2021/11/20 12:13:11;;;;;;;15.17;10.50;;;;;;;11.41;73.74;99153.70;2271681;78;20990;-80
2021/11/20 12:16:12;;;;;;;8.27;6.60;;;;;;;11.35;74.00;99155.80;2271375;78;21014;-80
2021/11/20 12:19:13;;;;;;;7.67;6.75;;;;;;;11.30;74.36;99148.33;2270582;78;20943;-79
2021/11/20 12:22:18;;;;;;;11.00;7.28;;;;;;;11.29;74.24;99153.11;2270305;78;20951;-80
2021/11/20 12:25:16;;;;;;;10.80;8.23;;;;;;;11.25;74.76;99151.28;2270187;78;21390;-79
2021/11/20 12:28:16;;;;;;;9.33;8.33;;;;;;;11.20;75.02;99149.03;2269885;78;20984;-79
2021/11/20 12:31:17;;;;;;;10.87;7.70;;;;;;;11.12;75.36;99145.43;2266848;78;20935;-80
2021/11/20 12:34:17;;;;;;;8.93;6.97;;;;;;;11.06;75.65;99142.73;2267607;78;21346;-80
2021/11/20 12:37:18;;;;;;;9.57;6.97;;;;;;;11.00;75.97;99142.64;2268267;78;20967;-81
2021/11/20 12:40:18;;;;;;;10.73;5.93;;;;;;;10.93;76.47;99140.79;2267687;78;20954;-81
2021/11/20 12:43:19;;;;;;;11.93;6.60;;;;;;;10.86;76.96;99133.29;2267730;78;20955;-81
2021/11/20 12:46:19;;;;;;;11.33;6.43;;;;;;;10.82;77.28;99131.06;2268620;78;21300;-81
2021/11/20 12:49:21;;;;;;;9.40;6.07;;;;;;;10.81;77.48;99131.91;2268199;78;20955;-80
2021/11/20 12:52:21;;;;;;;13.13;7.47;;;;;;;10.82;77.69;99127.14;2268591;78;20935;-80
2021/11/20 12:55:22;;;;;;;10.30;7.03;;;;;;;10.83;77.88;99127.59;2268844;78;20940;-82
2021/11/20 12:58:23;;;;;;;11.47;7.30;;;;;;;10.86;78.08;99126.77;2267834;78;21026;-80
2021/11/20 13:01:24;;;;;;;9.33;5.90;;;;;;;10.83;78.29;99122.38;2268547;78;20979;-80
2021/11/20 13:04:24;;;;;;;9.53;6.77;;;;;;;10.79;78.81;99119.27;2267842;78;20944;-81
2021/11/20 13:07:25;;;;;;;6.80;5.43;;;;;;;10.68;79.64;99120.83;2267100;78;20986;-80
2021/11/20 13:10:25;;;;;;;8.87;6.73;;;;;;;10.64;79.81;99121.63;2268097;78;21694;-81
2021/11/20 13:13:26;;;;;;;6.07;4.97;;;;;;;10.56;80.57;99121.06;2267845;78;20954;-81
2021/11/20 13:16:26;;;;;;;5.33;4.80;;;;;;;10.51;80.65;99123.59;2268937;78;20948;-80
2021/11/20 13:19:27;;;;;;;6.40;5.27;;;;;;;10.48;80.51;99114.41;2268610;78;20948;-80
2021/11/20 13:22:28;;;;;;;9.03;6.60;;;;;;;10.44;80.77;99110.00;2268686;78;21379;-79
2021/11/20 13:25:28;;;;;;;8.37;6.57;;;;;;;10.40;81.47;99114.68;2268501;78;20967;-80
2021/11/20 13:28:29;;;;;;;12.23;8.20;;;;;;;10.36;81.96;99118.97;2268759;78;21081;-81
2021/11/20 13:31:29;;;;;;;11.40;8.93;;;;;;;10.34;81.92;99118.06;2272746;78;20959;-82
2021/11/20 13:34:30;;;;;;;12.93;9.30;;;;;;;10.29;82.92;99117.11;2272882;78;20959;-80
2021/11/20 13:37:30;;;;;;;11.87;9.30;;;;;;;10.18;84.07;99112.97;2272894;78;21287;-80
2021/11/20 13:40:31;;;;;;;18.57;11.80;;;;;;;10.12;84.68;99114.17;2273048;78;20927;-81
2021/11/20 13:43:33;;;;;;;15.30;11.33;;;;;;;10.04;86.31;99110.55;2272509;78;20990;-80
2021/11/20 13:46:33;;;;;;;16.07;12.17;;;;;;;9.99;85.72;99108.70;2272444;78;20970;-79
2021/11/20 13:49:34;;;;;;;19.03;14.73;;;;;;;9.92;86.33;99101.20;2272665;78;21382;-82
2021/11/20 13:52:34;;;;;;;13.27;10.33;;;;;;;9.86;86.30;99097.17;2272601;78;20970;-81
2021/11/20 13:55:35;;;;;;;10.10;8.83;;;;;;;9.81;86.58;99103.61;2272608;78;20963;-80
2021/11/20 13:58:35;;;;;;;13.57;10.13;;;;;;;9.79;87.77;99101.81;2272514;78;21383;-82
2021/11/20 14:01:36;;;;;;;11.67;8.93;;;;;;;9.76;87.34;99100.03;2272734;78;21404;-80
2021/11/20 14:04:41;;;;;;;15.93;9.77;;;;;;;9.76;87.73;99096.55;2272273;78;20939;-80
2021/11/20 14:07:41;;;;;;;16.37;10.83;;;;;;;9.75;87.97;99096.09;2272602;78;21011;-80
2021/11/20 14:10:43;;;;;;;19.13;13.10;;;;;;;9.76;87.14;99096.13;2272242;78;20908;-80
2021/11/20 14:13:44;;;;;;;18.37;12.70;;;;;;;9.76;87.45;99092.21;2272744;78;20930;-79